Hamburg, Mississippi
Current Conditions -  °F | °C
As of 4:35 AM on Monday 22 Dec 2014 (Local Time) from KHEZ Reporting Station
Overcast Overcast  
Wind Chill: 54°   Ceiling: 300
Heat Index: 54°   Visibility: 3mi
Dew Point: 52°   Wind: 6mph
Humidity: 94%   Direction: 150°SSE
Pressure: 29.85"   Gusts: NA
Location:  31.4774°N, 91.0619°W
Report Text: KHEZ 221035Z AUTO 15005KT 3SM OVC003 12/11 A2985 RMK AO1
Loading
Personal Weather Stations






























Interactive Weather Map New forecast layout! Learn more

10-Day Weather Forecast

Advertisements
Track Severe Weather on mobile